Time;durP1;ratioP1;P1;durP2;ratioP2;P2;SDS_P1;SDS_P2;PMS_P1;PMS_P2;Temp;Humidity;BMP_temperature;BMP_pressure;BME280_temperature;BME280_humidity;BME280_pressure;Samples;Min_cycle;Max_cycle;Signal;HPM_P1;HPM_P2
2021/08/20 00:00:17;;;;;;;6.55;5.95;;;28.30;41.00;;;;;;4741338;58;21021;-31
2021/08/20 00:05:18;;;;;;;7.00;6.37;;;28.30;41.10;;;;;;4740362;58;21057;-29
2021/08/20 00:10:19;;;;;;;7.60;6.50;;;28.20;41.00;;;;;;4762336;55;21077;-24
2021/08/20 00:15:21;;;;;;;6.70;6.00;;;28.20;41.00;;;;;;4753065;55;21072;-30
2021/08/20 00:20:22;;;;;;;7.57;6.28;;;28.20;41.00;;;;;;4746313;55;21017;-35
2021/08/20 00:25:26;;;;;;;6.75;5.90;;;28.20;41.10;;;;;;4770685;55;21014;-33
2021/08/20 00:30:27;;;;;;;6.43;5.70;;;28.30;41.10;;;;;;4747135;55;21074;-27
2021/08/20 00:35:30;;;;;;;6.80;6.10;;;28.20;41.10;;;;;;4750332;55;21088;-28
2021/08/20 00:40:32;;;;;;;7.30;6.45;;;28.20;41.20;;;;;;4752961;55;21050;-22
2021/08/20 00:45:34;;;;;;;5.75;5.25;;;28.20;41.10;;;;;;4787131;55;22284;-26
2021/08/20 00:50:35;;;;;;;5.97;5.37;;;28.20;41.20;;;;;;4771696;54;21149;-31
2021/08/20 00:55:36;;;;;;;6.18;5.57;;;28.20;41.20;;;;;;4774495;55;21009;-23
2021/08/20 01:00:40;;;;;;;6.57;5.95;;;28.20;41.20;;;;;;4741767;55;21045;-31
2021/08/20 01:05:41;;;;;;;6.25;5.65;;;28.20;41.20;;;;;;4756511;55;21579;-32
2021/08/20 01:10:42;;;;;;;6.10;5.50;;;28.20;41.20;;;;;;4770840;55;21523;-30
2021/08/20 01:15:44;;;;;;;6.22;5.60;;;28.20;41.20;;;;;;4750424;54;21029;-27
2021/08/20 01:20:44;;;;;;;5.50;5.00;;;28.20;41.20;;;;;;4762672;55;21100;-33
2021/08/20 01:25:46;;;;;;;7.45;5.82;;;28.20;41.20;;;;;;4755456;55;21030;-32
2021/08/20 01:30:47;;;;;;;5.65;5.03;;;28.20;41.30;;;;;;4760945;55;21116;-33
2021/08/20 01:35:47;;;;;;;5.90;5.32;;;28.20;41.30;;;;;;4741314;58;21026;-32
2021/08/20 01:40:48;;;;;;;5.60;5.10;;;28.20;41.30;;;;;;4740679;58;21085;-32
2021/08/20 01:45:50;;;;;;;6.18;5.28;;;28.20;41.30;;;;;;4756077;55;21872;-25
2021/08/20 01:50:51;;;;;;;5.20;4.70;;;28.20;41.50;;;;;;4770044;55;21121;-32
2021/08/20 01:55:52;;;;;;;5.25;4.75;;;28.20;41.30;;;;;;4740809;55;21061;-30
2021/08/20 02:00:52;;;;;;;5.55;5.05;;;28.20;41.50;;;;;;4775185;55;21365;-30
2021/08/20 02:05:53;;;;;;;6.18;5.30;;;28.20;41.50;;;;;;4752348;55;21133;-31
2021/08/20 02:10:55;;;;;;;5.60;4.60;;;28.10;41.50;;;;;;4740245;58;22282;-31
2021/08/20 02:15:56;;;;;;;5.07;4.57;;;28.20;41.60;;;;;;4809133;55;22007;-31
2021/08/20 02:20:57;;;;;;;5.47;4.35;;;28.10;41.40;;;;;;4778378;55;21040;-30
2021/08/20 02:25:58;;;;;;;5.60;4.70;;;28.10;41.40;;;;;;4757717;55;21132;-32
2021/08/20 02:30:59;;;;;;;5.32;4.82;;;28.10;41.40;;;;;;4785462;55;22083;-33
2021/08/20 02:36:02;;;;;;;4.93;4.53;;;28.10;41.40;;;;;;4758876;54;21104;-32
2021/08/20 02:41:03;;;;;;;5.05;4.47;;;28.10;41.60;;;;;;4818126;55;21507;-32
2021/08/20 02:46:04;;;;;;;5.43;4.40;;;28.10;41.50;;;;;;4753502;55;21077;-30
2021/08/20 02:51:07;;;;;;;4.50;4.10;;;28.10;41.50;;;;;;4756133;55;21081;-30
2021/08/20 02:56:08;;;;;;;5.93;4.45;;;28.10;41.50;;;;;;4752802;55;22377;-30
2021/08/20 03:01:09;;;;;;;5.00;4.50;;;28.10;41.60;;;;;;4778196;54;21155;-32
2021/08/20 03:06:10;;;;;;;4.97;4.43;;;28.10;41.60;;;;;;4752984;55;21085;-25
2021/08/20 03:11:11;;;;;;;4.90;4.43;;;28.10;41.50;;;;;;4757403;55;21017;-29
2021/08/20 03:16:12;;;;;;;4.65;4.22;;;28.10;41.60;;;;;;4775094;55;21467;-22
2021/08/20 03:21:12;;;;;;;4.78;4.22;;;28.10;41.80;;;;;;4755652;55;21073;-17
2021/08/20 03:26:13;;;;;;;4.60;4.20;;;28.10;41.60;;;;;;4754986;55;21041;-32
2021/08/20 03:31:14;;;;;;;4.50;4.10;;;28.10;41.70;;;;;;4755436;55;21519;-31
2021/08/20 03:36:15;;;;;;;4.40;4.00;;;28.10;41.60;;;;;;4755570;55;21018;-26
2021/08/20 03:41:17;;;;;;;4.95;4.03;;;28.00;41.50;;;;;;4744781;55;21390;-31
2021/08/20 03:46:18;;;;;;;4.65;4.25;;;28.00;41.60;;;;;;4757961;55;21077;-31
2021/08/20 03:51:20;;;;;;;5.10;4.40;;;28.00;41.60;;;;;;4746718;55;21491;-22
2021/08/20 03:56:21;;;;;;;4.80;4.40;;;28.10;41.60;;;;;;4755457;54;20990;-31
2021/08/20 04:01:22;;;;;;;4.75;4.35;;;28.00;41.60;;;;;;4786947;55;21017;-33
2021/08/20 04:06:23;;;;;;;4.32;3.92;;;28.00;42.20;;;;;;4805340;54;21041;-26
2021/08/20 04:11:23;;;;;;;4.70;4.30;;;28.00;41.60;;;;;;4763565;54;21025;-31
2021/08/20 04:16:24;;;;;;;4.50;4.10;;;28.00;41.50;;;;;;4741611;55;20997;-32
2021/08/20 04:21:25;;;;;;;4.90;4.40;;;28.00;41.60;;;;;;4756491;55;21013;-20
2021/08/20 04:26:26;;;;;;;4.50;4.10;;;28.00;41.60;;;;;;4782663;55;21032;-31
2021/08/20 04:31:27;;;;;;;4.45;3.80;;;28.00;41.50;;;;;;4756773;55;21028;-31
2021/08/20 04:36:31;;;;;;;4.40;4.00;;;28.00;41.50;;;;;;4746025;55;21112;-29
2021/08/20 04:41:31;;;;;;;4.25;3.85;;;28.00;41.50;;;;;;4807651;55;21013;-30
2021/08/20 04:46:32;;;;;;;4.50;4.10;;;27.90;41.40;;;;;;4768040;55;21001;-31
2021/08/20 04:51:34;;;;;;;4.40;4.00;;;28.00;41.50;;;;;;4740587;58;21563;-31
2021/08/20 04:56:36;;;;;;;4.75;4.25;;;27.90;41.40;;;;;;4751828;55;21492;-31
2021/08/20 05:01:37;;;;;;;5.32;4.05;;;27.90;41.50;;;;;;4750811;55;21460;-31
2021/08/20 05:06:38;;;;;;;5.05;4.10;;;27.90;41.40;;;;;;4741105;55;21133;-29
2021/08/20 05:11:39;;;;;;;4.37;3.92;;;27.90;41.30;;;;;;4789470;54;21006;-30
2021/08/20 05:16:41;;;;;;;4.40;4.00;;;27.90;41.30;;;;;;4754216;54;21483;-22
2021/08/20 05:21:41;;;;;;;4.55;4.15;;;27.90;41.30;;;;;;4740997;55;21022;-30
2021/08/20 05:26:42;;;;;;;5.03;4.53;;;27.90;41.30;;;;;;4757288;55;21017;-30
2021/08/20 05:31:43;;;;;;;4.80;4.30;;;27.90;41.30;;;;;;4751820;54;21033;-30
2021/08/20 05:36:44;;;;;;;4.70;4.20;;;27.90;41.30;;;;;;4752488;55;21055;-31
2021/08/20 05:41:45;;;;;;;4.85;4.22;;;27.90;41.30;;;;;;4740588;56;21654;-29
2021/08/20 05:46:46;;;;;;;4.82;4.30;;;27.90;41.40;;;;;;4774179;54;21065;-32
2021/08/20 05:51:47;;;;;;;5.07;4.57;;;27.90;41.30;;;;;;4741078;55;21006;-30
2021/08/20 05:56:48;;;;;;;5.07;4.57;;;27.80;41.20;;;;;;4761693;55;21061;-32
2021/08/20 06:01:49;;;;;;;5.07;4.30;;;27.80;41.30;;;;;;4775610;55;21015;-30
2021/08/20 06:06:50;;;;;;;6.00;4.95;;;27.80;41.20;;;;;;4742445;55;21622;-31
2021/08/20 06:11:51;;;;;;;5.07;4.57;;;27.80;41.30;;;;;;4758892;55;21490;-28
2021/08/20 06:16:55;;;;;;;5.07;4.57;;;27.80;41.40;;;;;;4771230;55;21539;-31
2021/08/20 06:21:58;;;;;;;5.05;4.43;;;27.80;41.40;;;;;;4776742;55;21599;-31
2021/08/20 06:26:59;;;;;;;7.20;4.70;;;27.80;41.20;;;;;;4750923;54;21511;-31
2021/08/20 06:32:00;;;;;;;5.30;4.80;;;27.80;41.50;;;;;;4740764;58;21061;-28
2021/08/20 06:37:01;;;;;;;5.53;5.00;;;27.80;41.40;;;;;;4746296;55;21010;-31
2021/08/20 06:42:02;;;;;;;7.75;5.35;;;27.80;42.00;;;;;;4748264;55;21037;-32
2021/08/20 06:47:03;;;;;;;5.95;5.30;;;27.80;41.40;;;;;;4749531;55;21198;-26
2021/08/20 06:52:04;;;;;;;5.47;4.97;;;27.80;41.40;;;;;;4756980;55;21010;-29
2021/08/20 06:57:06;;;;;;;6.65;5.45;;;27.80;41.50;;;;;;4754258;55;21042;-33
2021/08/20 07:02:06;;;;;;;6.10;5.50;;;27.80;41.50;;;;;;4758380;55;21078;-31
2021/08/20 07:07:07;;;;;;;8.38;6.15;;;27.80;41.50;;;;;;4740157;58;21077;-29
2021/08/20 07:12:08;;;;;;;27.08;17.02;;;27.80;41.50;;;;;;4746313;55;21017;-20
2021/08/20 07:17:09;;;;;;;24.17;15.68;;;27.70;40.10;;;;;;4743664;55;21443;-18
2021/08/20 07:22:10;;;;;;;32.03;19.67;;;27.60;40.20;;;;;;4748651;55;21073;-21
2021/08/20 07:27:10;;;;;;;37.25;27.20;;;27.50;40.50;;;;;;4770700;54;21045;-22
2021/08/20 07:32:11;;;;;;;36.08;28.90;;;27.50;40.70;;;;;;4744919;55;21081;-24
2021/08/20 07:37:12;;;;;;;38.35;25.20;;;27.50;40.90;;;;;;4750532;55;21472;-26
2021/08/20 07:42:13;;;;;;;38.88;26.92;;;27.40;40.80;;;;;;4740138;55;21049;-27
2021/08/20 07:47:14;;;;;;;41.67;28.12;;;27.50;41.10;;;;;;4740131;55;21005;-22
2021/08/20 07:52:15;;;;;;;32.08;24.90;;;27.40;41.30;;;;;;4748456;55;21017;-23
2021/08/20 07:57:16;;;;;;;35.22;25.52;;;27.50;41.30;;;;;;4780832;55;21014;-30
2021/08/20 08:02:16;;;;;;;29.48;24.95;;;27.60;41.40;;;;;;4775390;55;21022;-26
2021/08/20 08:07:17;;;;;;;35.92;24.73;;;27.60;41.40;;;;;;4751711;55;21014;-29
2021/08/20 08:12:18;;;;;;;34.92;24.73;;;27.70;41.40;;;;;;4740582;58;21472;-27
2021/08/20 08:17:19;;;;;;;33.38;24.00;;;27.70;41.40;;;;;;4754200;55;21006;-32
2021/08/20 08:22:20;;;;;;;28.77;22.08;;;27.70;41.30;;;;;;4752793;55;21030;-27
2021/08/20 08:27:20;;;;;;;34.40;25.58;;;27.80;41.30;;;;;;4748266;55;21018;-29
2021/08/20 08:32:21;;;;;;;137.50;28.35;;;27.80;41.20;;;;;;4749561;55;21467;-30
2021/08/20 08:37:22;;;;;;;167.32;121.82;;;27.80;42.10;;;;;;4739937;56;21022;-28
2021/08/20 08:42:23;;;;;;;105.15;83.35;;;27.90;41.50;;;;;;4740038;58;21551;-21
2021/08/20 08:47:25;;;;;;;41.90;32.17;;;27.80;40.00;;;;;;4800770;55;21035;-26
2021/08/20 08:52:26;;;;;;;38.03;29.12;;;27.80;39.00;;;;;;4748296;55;21087;-25
2021/08/20 08:57:27;;;;;;;44.38;34.65;;;27.70;39.50;;;;;;4739951;58;21034;-25
2021/08/20 09:02:31;;;;;;;43.20;32.33;;;27.80;39.50;;;;;;4740363;58;21110;-25
2021/08/20 09:07:37;;;;;;;41.22;31.02;;;27.80;39.30;;;;;;4769580;55;21153;-22
2021/08/20 09:12:40;;;;;;;43.97;28.40;;;27.80;39.00;;;;;;4340764;55;21612;-19
2021/08/20 09:17:53;;;;;;;33.70;26.70;;;27.80;39.20;;;;;;4305308;60;21072;-27
2021/08/20 09:22:57;;;;;;;39.10;29.10;;;27.80;39.20;;;;;;4299008;60;21103;-27
2021/08/20 09:28:27;;;;;;;38.30;24.85;;;27.90;39.70;;;;;;4303331;60;21109;-26
2021/08/20 09:34:02;;;;;;;20.15;15.63;;;27.90;39.80;;;;;;4300283;60;21161;-22
2021/08/20 09:39:03;;;;;;;22.27;16.67;;;27.90;39.40;;;;;;4323454;60;21061;-25
2021/08/20 09:44:07;;;;;;;24.40;14.85;;;27.90;39.10;;;;;;4296922;61;21157;-23
2021/08/20 09:49:08;;;;;;;28.60;18.25;;;28.00;39.30;;;;;;4301194;61;21626;-25
2021/08/20 09:54:25;;;;;;;24.80;16.15;;;28.00;39.10;;;;;;4304892;60;21148;-25
2021/08/20 09:59:30;;;;;;;20.23;15.95;;;28.00;38.80;;;;;;4305094;60;21104;-29
2021/08/20 10:04:33;;;;;;;27.70;20.88;;;28.00;38.60;;;;;;4306551;60;21563;-26
2021/08/20 10:09:38;;;;;;;31.70;25.35;;;28.00;38.40;;;;;;4295245;65;21122;-22
2021/08/20 10:14:39;;;;;;;30.55;21.80;;;28.00;38.60;;;;;;4306473;60;21519;-28
2021/08/20 10:19:41;;;;;;;30.05;23.92;;;28.10;38.70;;;;;;4311738;60;21081;-27
2021/08/20 10:24:42;;;;;;;25.67;19.42;;;28.10;38.50;;;;;;4294656;64;21595;-26
2021/08/20 10:29:47;;;;;;;21.73;17.37;;;28.10;38.40;;;;;;4295699;61;21141;-24
2021/08/20 10:34:48;;;;;;;26.75;18.90;;;28.10;38.40;;;;;;4295211;64;21603;-25
2021/08/20 10:39:51;;;;;;;26.77;20.90;;;28.10;38.60;;;;;;4315481;61;21068;-25
2021/08/20 10:45:07;;;;;;;37.70;24.40;;;28.10;38.60;;;;;;4308438;60;21113;-21
2021/08/20 10:50:21;;;;;;;30.23;21.92;;;28.20;38.90;;;;;;4327576;60;21125;-25
2021/08/20 10:55:32;;;;;;;21.73;16.30;;;28.20;38.70;;;;;;4309815;60;21122;-23
2021/08/20 11:00:38;;;;;;;23.60;17.33;;;28.10;38.60;;;;;;4302938;60;21592;-26
2021/08/20 11:05:48;;;;;;;23.38;17.27;;;28.20;38.70;;;;;;4311176;60;21495;-20
2021/08/20 11:10:48;;;;;;;22.40;17.45;;;28.20;38.90;;;;;;4313807;60;21100;-27
2021/08/20 11:15:51;;;;;;;21.37;15.98;;;28.20;38.90;;;;;;4306262;61;21065;-28
2021/08/20 11:20:52;;;;;;;21.05;14.68;;;28.20;39.20;;;;;;4312848;61;21550;-26
2021/08/20 11:25:56;;;;;;;17.62;15.05;;;28.20;38.80;;;;;;4294776;61;21069;-30
2021/08/20 11:31:08;;;;;;;16.90;14.27;;;28.20;38.90;;;;;;4344006;60;21558;-29
2021/08/20 11:36:17;;;;;;;21.37;14.82;;;28.20;38.90;;;;;;4307750;60;21542;-31
2021/08/20 11:41:25;;;;;;;19.23;13.48;;;28.20;39.00;;;;;;4296572;60;21495;-29
2021/08/20 11:46:48;;;;;;;20.00;13.75;;;28.30;39.10;;;;;;4313576;60;21809;-31
2021/08/20 11:51:50;;;;;;;16.92;13.25;;;28.30;39.20;;;;;;4295292;65;21554;-27
2021/08/20 11:56:53;;;;;;;15.60;13.20;;;28.30;39.30;;;;;;4319718;60;21622;-29
2021/08/20 12:02:00;;;;;;;18.75;13.93;;;28.30;39.30;;;;;;4310811;61;21096;-21
2021/08/20 12:07:01;;;;;;;21.87;14.38;;;28.30;39.40;;;;;;4313490;61;21403;-24
2021/08/20 12:12:02;;;;;;;23.65;16.27;;;28.30;39.90;;;;;;4306924;61;21049;-25
2021/08/20 12:17:20;;;;;;;18.65;14.07;;;28.30;39.80;;;;;;4317173;60;21183;-28
2021/08/20 12:22:21;;;;;;;21.42;14.50;;;28.30;39.30;;;;;;4311203;60;22079;-26
2021/08/20 12:27:26;;;;;;;20.77;14.13;;;28.30;39.60;;;;;;4297816;61;21096;-22
2021/08/20 12:32:32;;;;;;;21.37;13.55;;;28.30;39.00;;;;;;4321312;60;21135;-23
2021/08/20 12:37:34;;;;;;;28.12;16.45;;;28.30;38.90;;;;;;4313211;60;21116;-29
2021/08/20 12:42:47;;;;;;;30.98;17.90;;;28.30;39.00;;;;;;4295888;60;21594;-26
2021/08/20 12:48:09;;;;;;;35.05;19.50;;;28.30;39.10;;;;;;4302545;60;21056;-25
2021/08/20 12:53:11;;;;;;;29.27;17.95;;;28.30;39.20;;;;;;4371101;60;21156;-28
2021/08/20 12:58:12;;;;;;;27.10;17.77;;;28.30;40.10;;;;;;4308159;61;21106;-30
2021/08/20 13:03:13;;;;;;;28.92;18.00;;;28.40;40.60;;;;;;4318836;60;21115;-27
2021/08/20 13:08:17;;;;;;;29.87;18.83;;;28.40;40.80;;;;;;4307256;61;21073;-28
2021/08/20 13:13:19;;;;;;;28.98;16.73;;;28.40;41.30;;;;;;4299131;61;21145;-29
2021/08/20 13:18:20;;;;;;;28.85;17.80;;;28.40;41.70;;;;;;4311016;60;21065;-28
2021/08/20 13:23:22;;;;;;;29.20;18.30;;;28.40;41.70;;;;;;4295398;65;21089;-28
2021/08/20 13:28:23;;;;;;;23.90;17.80;;;28.40;41.80;;;;;;4316813;60;21158;-29
2021/08/20 13:33:24;;;;;;;25.12;17.62;;;28.40;41.90;;;;;;4316385;61;21195;-28
2021/08/20 13:38:25;;;;;;;24.70;17.87;;;28.40;42.10;;;;;;4303480;60;21084;-30
2021/08/20 13:43:27;;;;;;;27.08;16.83;;;28.40;42.20;;;;;;4294956;61;21343;-23
2021/08/20 13:48:28;;;;;;;24.83;17.50;;;28.50;42.60;;;;;;4324086;61;21081;-31
2021/08/20 13:53:28;;;;;;;22.15;16.62;;;28.50;42.70;;;;;;4315246;61;21080;-21
2021/08/20 13:58:31;;;;;;;22.05;16.65;;;28.50;42.90;;;;;;4296276;60;22216;-28
2021/08/20 14:03:33;;;;;;;21.60;15.82;;;28.50;43.00;;;;;;4302958;60;21137;-25
2021/08/20 14:08:35;;;;;;;20.67;15.88;;;28.50;43.20;;;;;;4308346;61;21045;-29
2021/08/20 14:13:36;;;;;;;18.90;14.75;;;28.50;43.30;;;;;;4302951;61;21037;-24
2021/08/20 14:18:37;;;;;;;22.35;16.02;;;28.40;43.20;;;;;;4295614;65;21060;-29
2021/08/20 14:23:38;;;;;;;23.95;16.60;;;28.40;43.20;;;;;;4295455;61;21061;-29
2021/08/20 14:28:38;;;;;;;21.15;15.07;;;28.40;43.30;;;;;;4336746;61;21123;-33
2021/08/20 14:33:39;;;;;;;20.55;15.82;;;28.40;43.40;;;;;;4306597;61;21064;-34
2021/08/20 14:38:40;;;;;;;21.42;15.57;;;28.30;43.30;;;;;;4307055;61;21084;-29
2021/08/20 14:43:41;;;;;;;18.65;14.80;;;28.30;43.30;;;;;;4304483;61;21593;-32
2021/08/20 14:48:42;;;;;;;20.50;15.93;;;28.30;43.30;;;;;;4302014;61;21072;-29
2021/08/20 14:53:43;;;;;;;23.58;15.75;;;28.30;43.40;;;;;;4307903;61;21652;-29
2021/08/20 14:58:43;;;;;;;21.15;16.08;;;28.30;43.40;;;;;;4296018;65;21133;-31
2021/08/20 15:03:45;;;;;;;20.62;14.87;;;28.30;43.40;;;;;;4295677;65;21104;-31
2021/08/20 15:08:46;;;;;;;18.75;14.40;;;28.30;43.40;;;;;;4309751;61;21553;-27
2021/08/20 15:13:50;;;;;;;17.85;14.25;;;28.30;43.40;;;;;;4296858;61;21077;-33
2021/08/20 15:18:51;;;;;;;20.17;15.02;;;28.20;43.30;;;;;;4304190;60;21069;-31
2021/08/20 15:23:52;;;;;;;19.50;14.75;;;28.20;43.30;;;;;;4296586;61;21084;-33
2021/08/20 15:28:53;;;;;;;18.95;15.18;;;28.20;43.30;;;;;;4310460;61;21080;-34
2021/08/20 15:33:53;;;;;;;18.10;15.02;;;28.20;43.30;;;;;;4304290;61;21248;-32
2021/08/20 15:38:54;;;;;;;17.00;14.10;;;28.20;43.30;;;;;;4298292;61;21122;-32
2021/08/20 15:43:56;;;;;;;18.77;15.02;;;28.20;43.30;;;;;;4311074;61;21117;-29
2021/08/20 15:48:57;;;;;;;18.12;14.57;;;28.20;43.30;;;;;;4304834;60;21116;-32
2021/08/20 15:53:59;;;;;;;18.83;14.55;;;28.20;43.30;;;;;;4295903;65;21619;-27
2021/08/20 15:59:00;;;;;;;16.77;14.68;;;28.20;43.30;;;;;;4309846;60;21073;-32
2021/08/20 16:04:01;;;;;;;18.48;14.00;;;28.20;43.30;;;;;;4305239;61;21105;-28
2021/08/20 16:09:03;;;;;;;18.48;14.48;;;28.20;43.30;;;;;;4296516;61;21057;-32
2021/08/20 16:14:04;;;;;;;17.12;14.23;;;28.20;43.30;;;;;;4345757;61;21618;-35
2021/08/20 16:19:10;;;;;;;19.10;13.93;;;28.20;43.30;;;;;;4322302;60;21041;-31
2021/08/20 16:24:11;;;;;;;17.10;14.00;;;28.20;43.30;;;;;;4308934;61;21545;-30
2021/08/20 16:29:12;;;;;;;16.85;13.32;;;28.20;43.20;;;;;;4296037;65;21588;-33
2021/08/20 16:34:13;;;;;;;19.90;14.57;;;28.20;43.30;;;;;;4295907;65;21144;-30
2021/08/20 16:39:15;;;;;;;16.65;13.55;;;28.20;43.20;;;;;;4309173;61;21053;-33
2021/08/20 16:44:16;;;;;;;18.60;15.18;;;28.20;43.30;;;;;;4338472;61;21531;-26
2021/08/20 16:49:17;;;;;;;16.42;13.35;;;28.20;43.20;;;;;;4314286;61;21077;-29
2021/08/20 16:54:18;;;;;;;18.05;13.73;;;28.20;43.30;;;;;;4297490;60;21189;-32
2021/08/20 16:59:19;;;;;;;16.05;13.25;;;28.20;43.20;;;;;;4297985;60;21106;-23
2021/08/20 17:04:20;;;;;;;14.87;12.32;;;28.20;43.20;;;;;;4297649;61;21169;-31
2021/08/20 17:09:21;;;;;;;16.10;13.52;;;28.20;43.20;;;;;;4298091;61;21591;-30
2021/08/20 17:14:22;;;;;;;16.40;13.23;;;28.20;43.20;;;;;;4319557;61;21082;-32
2021/08/20 17:19:22;;;;;;;16.05;13.35;;;28.10;43.10;;;;;;4299016;61;21077;-30
2021/08/20 17:24:23;;;;;;;16.08;13.10;;;28.10;43.10;;;;;;4298968;61;21061;-33
2021/08/20 17:29:24;;;;;;;17.52;13.80;;;28.10;43.10;;;;;;4304838;61;21049;-32
2021/08/20 17:34:25;;;;;;;17.27;13.65;;;28.10;43.10;;;;;;4300046;61;21045;-34
2021/08/20 17:39:26;;;;;;;16.45;13.73;;;28.10;43.00;;;;;;4308052;61;21158;-29
2021/08/20 17:44:26;;;;;;;15.93;12.95;;;28.10;43.10;;;;;;4300511;61;21136;-29
2021/08/20 17:49:27;;;;;;;16.40;13.25;;;28.10;43.00;;;;;;4295159;65;21073;-31
2021/08/20 17:54:28;;;;;;;15.95;12.90;;;28.20;43.10;;;;;;4322684;60;21060;-31
2021/08/20 17:59:29;;;;;;;16.15;13.23;;;28.10;43.00;;;;;;4302627;61;21586;-33
2021/08/20 18:04:30;;;;;;;16.95;13.00;;;28.10;43.00;;;;;;4295179;65;21077;-26
2021/08/20 18:09:34;;;;;;;15.10;12.55;;;28.10;43.00;;;;;;4295767;65;21613;-31
2021/08/20 18:14:36;;;;;;;15.93;12.48;;;28.20;43.00;;;;;;4299164;61;21554;-29
2021/08/20 18:19:37;;;;;;;16.37;13.38;;;28.10;42.90;;;;;;4299689;61;21112;-32
2021/08/20 18:24:38;;;;;;;13.38;11.98;;;28.10;42.90;;;;;;4296579;61;21146;-27
2021/08/20 18:29:39;;;;;;;14.85;12.30;;;28.10;42.90;;;;;;4295572;65;21114;-29
2021/08/20 18:34:40;;;;;;;15.15;12.07;;;28.20;42.90;;;;;;4295822;62;21085;-33
2021/08/20 18:39:41;;;;;;;15.02;12.45;;;28.10;42.80;;;;;;4316852;61;21072;-31
2021/08/20 18:44:41;;;;;;;14.75;11.95;;;28.10;43.40;;;;;;4297788;61;21263;-26
2021/08/20 18:49:42;;;;;;;15.20;13.13;;;28.10;42.80;;;;;;4295426;65;21097;-31
2021/08/20 18:54:43;;;;;;;16.12;12.65;;;28.10;42.70;;;;;;4298196;61;21615;-32
2021/08/20 18:59:44;;;;;;;16.85;13.18;;;28.10;42.70;;;;;;4296000;61;21113;-32
2021/08/20 19:04:45;;;;;;;16.40;13.75;;;28.10;42.70;;;;;;4313003;61;21096;-31
2021/08/20 19:09:48;;;;;;;17.73;13.40;;;28.10;42.70;;;;;;4305521;61;21077;-36
2021/08/20 19:14:49;;;;;;;15.98;12.85;;;28.10;42.70;;;;;;4312674;61;21597;-29
2021/08/20 19:19:53;;;;;;;16.62;13.55;;;28.10;42.70;;;;;;4307875;61;21068;-30
2021/08/20 19:24:54;;;;;;;16.85;14.25;;;28.10;42.60;;;;;;4295796;65;21073;-31
2021/08/20 19:29:54;;;;;;;16.80;14.30;;;28.10;42.60;;;;;;4296038;65;21126;-24
2021/08/20 19:34:55;;;;;;;17.48;13.88;;;28.10;42.60;;;;;;4323216;61;21519;-33
2021/08/20 19:39:56;;;;;;;18.50;14.18;;;28.10;42.60;;;;;;4297320;61;21065;-30
2021/08/20 19:44:57;;;;;;;17.05;13.57;;;28.10;42.60;;;;;;4311270;60;21101;-32
2021/08/20 19:49:58;;;;;;;17.87;13.90;;;28.10;42.60;;;;;;4325162;61;21121;-30
2021/08/20 19:55:00;;;;;;;18.23;14.00;;;28.10;42.60;;;;;;4298768;61;21108;-30
2021/08/20 20:00:01;;;;;;;16.42;13.88;;;28.10;42.60;;;;;;4297069;60;21045;-31
2021/08/20 20:05:02;;;;;;;18.23;13.82;;;28.10;42.60;;;;;;4295347;65;21117;-33
2021/08/20 20:10:04;;;;;;;16.30;13.60;;;28.10;42.60;;;;;;4296567;60;21053;-32
2021/08/20 20:15:08;;;;;;;17.37;13.52;;;28.10;42.60;;;;;;4300881;60;21193;-27
2021/08/20 20:20:10;;;;;;;18.17;13.57;;;28.10;42.60;;;;;;4313206;60;21587;-32
2021/08/20 20:25:12;;;;;;;15.57;12.90;;;28.10;42.60;;;;;;4299641;60;21144;-31
2021/08/20 20:30:13;;;;;;;14.63;12.85;;;28.10;42.60;;;;;;4346452;61;21077;-33
2021/08/20 20:35:14;;;;;;;16.25;12.93;;;28.10;42.70;;;;;;4296115;65;21069;-31
2021/08/20 20:40:15;;;;;;;13.95;12.25;;;28.10;42.00;;;;;;4295808;65;21134;-27
2021/08/20 20:45:16;;;;;;;14.70;12.65;;;28.10;42.60;;;;;;4304840;61;21117;-25
2021/08/20 20:50:18;;;;;;;15.00;13.27;;;28.10;42.60;;;;;;4307081;61;21141;-33
2021/08/20 20:55:19;;;;;;;14.93;12.52;;;28.10;42.60;;;;;;4300639;61;21057;-28
2021/08/20 21:00:20;;;;;;;14.93;12.82;;;28.10;42.60;;;;;;4305325;60;21579;-30
2021/08/20 21:05:22;;;;;;;14.52;12.32;;;28.10;42.70;;;;;;4322103;61;21065;-31
2021/08/20 21:10:23;;;;;;;13.85;12.37;;;28.10;42.60;;;;;;4303252;60;21088;-28
2021/08/20 21:15:24;;;;;;;14.13;11.88;;;28.10;42.60;;;;;;4305142;61;21075;-26
2021/08/20 21:20:25;;;;;;;15.48;12.23;;;28.10;42.60;;;;;;4295621;65;21077;-32
2021/08/20 21:25:25;;;;;;;14.98;12.27;;;28.10;42.70;;;;;;4299260;61;21141;-26
2021/08/20 21:30:26;;;;;;;16.30;11.90;;;28.10;42.70;;;;;;4304833;61;21077;-30
2021/08/20 21:35:27;;;;;;;13.77;11.48;;;28.10;42.80;;;;;;4312526;61;21637;-31
2021/08/20 21:40:28;;;;;;;14.00;11.27;;;28.10;42.70;;;;;;4300416;61;21073;-26
2021/08/20 21:45:29;;;;;;;14.55;12.02;;;28.10;42.70;;;;;;4295503;61;21153;-31
2021/08/20 21:50:29;;;;;;;12.75;10.88;;;28.10;42.80;;;;;;4306864;61;21559;-32
2021/08/20 21:55:31;;;;;;;15.50;11.50;;;28.10;42.80;;;;;;4318530;61;21745;-24
2021/08/20 22:00:32;;;;;;;12.37;11.02;;;28.10;42.80;;;;;;4308177;60;21144;-32
2021/08/20 22:05:33;;;;;;;12.50;11.20;;;28.10;42.90;;;;;;4328672;61;21136;-29
2021/08/20 22:10:35;;;;;;;12.27;10.82;;;28.00;42.80;;;;;;4332294;61;21619;-21
2021/08/20 22:15:36;;;;;;;12.30;11.00;;;28.10;42.90;;;;;;4301211;61;21075;-31
2021/08/20 22:20:39;;;;;;;14.27;11.05;;;28.10;43.00;;;;;;4307420;61;21057;-31
2021/08/20 22:25:40;;;;;;;12.90;10.82;;;28.10;43.60;;;;;;4318118;61;21583;-27
2021/08/20 22:30:41;;;;;;;12.02;10.73;;;28.10;42.90;;;;;;4304187;61;21052;-25
2021/08/20 22:35:42;;;;;;;13.35;11.00;;;28.00;42.90;;;;;;4304264;61;21150;-28
2021/08/20 22:40:43;;;;;;;11.05;9.70;;;28.00;42.90;;;;;;4358821;61;21125;-24
2021/08/20 22:45:47;;;;;;;12.23;10.82;;;28.10;43.00;;;;;;4385572;61;21606;-27
2021/08/20 22:50:48;;;;;;;12.10;9.75;;;28.00;42.90;;;;;;4300788;61;21109;-24
2021/08/20 22:55:49;;;;;;;11.98;10.13;;;28.00;43.60;;;;;;4301102;61;21523;-22
2021/08/20 23:00:50;;;;;;;11.63;10.25;;;28.00;43.00;;;;;;4301164;61;21077;-32
2021/08/20 23:05:50;;;;;;;12.35;10.07;;;28.00;43.00;;;;;;4342773;61;21551;-33
2021/08/20 23:10:52;;;;;;;12.37;10.50;;;28.00;43.00;;;;;;4316810;61;21080;-31
2021/08/20 23:15:53;;;;;;;11.65;10.10;;;28.00;43.00;;;;;;4296296;65;21061;-33
2021/08/20 23:20:53;;;;;;;11.82;10.20;;;28.00;43.00;;;;;;4299609;61;21102;-32
2021/08/20 23:25:54;;;;;;;11.77;10.32;;;28.00;43.00;;;;;;4307690;61;21983;-27
2021/08/20 23:30:55;;;;;;;11.43;10.20;;;28.10;43.80;;;;;;4302525;61;21129;-29
2021/08/20 23:35:56;;;;;;;11.60;10.20;;;28.00;43.10;;;;;;4302720;61;21049;-29
2021/08/20 23:40:57;;;;;;;11.30;9.60;;;28.00;43.10;;;;;;4300619;61;21226;-30
2021/08/20 23:45:58;;;;;;;11.65;10.20;;;28.00;43.10;;;;;;4303939;61;21053;-31
2021/08/20 23:50:59;;;;;;;10.85;9.75;;;28.00;43.10;;;;;;4321750;61;21141;-31
2021/08/20 23:56:00;;;;;;;11.50;9.95;;;28.00;43.20;;;;;;4322893;60;21129;-31
